createdAt,value
2018-04-30T00:05:25.790Z,13.89
2018-04-30T00:07:54.995Z,13.77
2018-04-30T00:10:24.574Z,13.73
2018-04-30T00:12:54.509Z,13.70
2018-04-30T00:15:24.027Z,13.58
2018-04-30T00:17:53.732Z,13.68
2018-04-30T00:20:23.284Z,13.67
2018-04-30T00:22:52.906Z,13.61
2018-04-30T00:25:22.434Z,13.64
2018-04-30T00:27:52.364Z,13.57
2018-04-30T00:30:21.878Z,13.50
2018-04-30T00:32:51.428Z,13.48
2018-04-30T00:35:20.962Z,13.42
2018-04-30T00:37:50.893Z,13.42
2018-04-30T00:40:20.443Z,13.34
2018-04-30T00:42:50.082Z,13.25
2018-04-30T00:45:20.090Z,13.31
2018-04-30T00:47:49.668Z,13.25
2018-04-30T00:50:19.405Z,13.21
2018-04-30T00:52:48.984Z,13.22
2018-04-30T00:55:18.643Z,13.15
2018-04-30T00:57:48.569Z,13.15
2018-04-30T01:00:18.099Z,12.97
2018-04-30T01:02:47.613Z,12.80
2018-04-30T01:05:16.843Z,12.82
2018-04-30T01:07:46.360Z,12.85
2018-04-30T01:10:15.872Z,12.70
2018-04-30T01:12:45.827Z,12.62
2018-04-30T01:15:15.350Z,12.33
2018-04-30T01:17:44.870Z,12.25
2018-04-30T01:20:14.598Z,12.12
2018-04-30T01:22:44.138Z,12.00
2018-04-30T01:25:13.674Z,12.01
2018-04-30T01:27:43.654Z,11.86
2018-04-30T01:30:13.585Z,11.77
2018-04-30T01:32:43.116Z,11.62
2018-04-30T01:35:12.724Z,11.50
2018-04-30T01:37:42.248Z,11.39
2018-04-30T01:40:11.761Z,11.35
2018-04-30T01:42:41.400Z,11.23
2018-04-30T01:45:11.346Z,11.20
2018-04-30T01:47:40.869Z,11.12
2018-04-30T01:50:10.375Z,11.11
2018-04-30T01:52:39.912Z,11.04
2018-04-30T01:55:09.450Z,10.85
2018-04-30T01:57:38.980Z,10.80
2018-04-30T02:00:08.006Z,10.89
2018-04-30T02:02:37.318Z,10.85
2018-04-30T02:05:06.894Z,10.79
2018-04-30T02:07:36.436Z,10.80
2018-04-30T02:10:05.638Z,10.69
2018-04-30T02:12:35.170Z,10.73
2018-04-30T02:15:04.456Z,10.65
2018-04-30T02:17:34.370Z,10.59
2018-04-30T02:20:04.370Z,10.59
2018-04-30T02:22:33.881Z,10.59
2018-04-30T02:25:03.423Z,10.65
2018-04-30T02:28:26.426Z,10.44
2018-04-30T02:30:55.974Z,10.45
2018-04-30T02:33:25.957Z,10.42
2018-04-30T02:35:55.680Z,10.41
2018-04-30T02:38:25.208Z,10.39
2018-04-30T02:40:55.164Z,10.34
2018-04-30T02:43:24.693Z,10.28
2018-04-30T02:45:54.252Z,10.31
2018-04-30T02:48:23.766Z,10.23
2018-04-30T02:50:53.312Z,10.30
2018-04-30T02:53:22.832Z,10.23
2018-04-30T02:55:52.508Z,10.20
2018-04-30T02:58:22.026Z,10.17
2018-04-30T03:00:51.538Z,10.22
2018-04-30T03:03:21.100Z,10.23
2018-04-30T03:05:50.814Z,10.02
2018-04-30T03:08:20.340Z,9.93
2018-04-30T03:10:49.846Z,9.93
2018-04-30T03:13:19.402Z,9.81
2018-04-30T03:15:49.298Z,9.82
2018-04-30T03:18:18.914Z,9.76
2018-04-30T03:20:49.205Z,9.80
2018-04-30T03:23:18.706Z,9.71
2018-04-30T03:25:48.235Z,9.75
2018-04-30T03:28:17.773Z,9.57
2018-04-30T03:30:47.793Z,9.66
2018-04-30T03:33:17.716Z,9.61
2018-04-30T03:35:47.646Z,9.63
2018-04-30T03:38:17.189Z,9.61
2018-04-30T03:40:46.779Z,9.55
2018-04-30T03:43:16.382Z,9.50
2018-04-30T03:45:45.913Z,9.54
2018-04-30T03:48:15.453Z,9.55
2018-04-30T03:50:45.367Z,9.55
2018-04-30T03:53:15.273Z,9.52
2018-04-30T03:55:45.197Z,9.50
2018-04-30T03:58:15.108Z,9.45
2018-04-30T04:01:01.768Z,9.46
2018-04-30T04:03:48.116Z,9.53
2018-04-30T04:09:29.788Z,9.38
2018-04-30T04:11:59.386Z,9.43
2018-04-30T04:14:29.128Z,9.42
2018-04-30T04:16:58.632Z,9.47
2018-04-30T04:19:28.136Z,9.44
2018-04-30T04:21:57.645Z,9.43
2018-04-30T04:24:27.202Z,9.42
2018-04-30T04:26:56.722Z,9.44
2018-04-30T04:29:26.226Z,9.39
2018-04-30T04:31:55.728Z,9.37
2018-04-30T04:34:25.314Z,9.47
2018-04-30T04:36:54.986Z,9.46
2018-04-30T04:39:24.515Z,9.51
2018-04-30T04:41:54.420Z,9.55
2018-04-30T04:44:24.716Z,9.64
2018-04-30T04:46:54.419Z,9.69
2018-04-30T04:49:23.995Z,9.76
2018-04-30T04:51:53.545Z,9.90
2018-04-30T04:54:23.078Z,10.10
2018-04-30T04:56:53.009Z,10.11
2018-04-30T04:59:22.923Z,10.16
2018-04-30T05:01:52.878Z,10.33
2018-04-30T05:04:22.392Z,11.19
2018-04-30T05:06:51.961Z,12.52
2018-04-30T05:09:21.510Z,13.42
2018-04-30T05:11:51.044Z,13.68
2018-04-30T05:14:20.700Z,13.92
2018-04-30T05:16:50.301Z,14.23
2018-04-30T05:19:19.852Z,13.70
2018-04-30T05:21:49.375Z,12.44
2018-04-30T05:24:18.900Z,11.84
2018-04-30T05:26:48.857Z,11.72
2018-04-30T05:29:18.632Z,12.55
2018-04-30T05:31:48.231Z,13.17
2018-04-30T05:34:18.157Z,13.85
2018-04-30T05:36:47.672Z,15.34
2018-04-30T05:39:16.962Z,15.48
2018-04-30T05:41:47.076Z,16.05
2018-04-30T05:44:16.794Z,16.43
2018-04-30T05:46:46.070Z,17.16
2018-04-30T05:49:16.017Z,16.79
2018-04-30T05:51:45.560Z,16.63
2018-04-30T05:54:15.131Z,16.79
2018-04-30T05:56:45.290Z,16.24
2018-04-30T05:59:14.811Z,16.14
2018-04-30T06:01:44.399Z,15.26
2018-04-30T06:04:13.935Z,14.97
2018-04-30T06:06:43.466Z,14.36
2018-04-30T06:09:13.952Z,13.92
2018-04-30T06:11:43.498Z,13.60
2018-04-30T06:14:13.450Z,13.42
2018-04-30T06:16:42.979Z,13.02
2018-04-30T06:19:12.827Z,12.92
2018-04-30T06:21:42.771Z,12.76
2018-04-30T06:24:12.496Z,13.03
2018-04-30T06:26:42.109Z,12.80
2018-04-30T06:29:12.196Z,12.79
2018-04-30T06:31:41.771Z,12.83
2018-04-30T06:34:12.118Z,13.09
2018-04-30T06:36:42.037Z,13.23
2018-04-30T06:39:11.579Z,13.08
2018-04-30T06:41:41.114Z,13.01
2018-04-30T06:44:10.651Z,12.86
2018-04-30T06:46:40.565Z,13.08
2018-04-30T06:49:10.100Z,13.20
2018-04-30T06:51:39.618Z,13.25
2018-04-30T06:54:20.336Z,13.29
2018-04-30T06:56:49.923Z,13.32
2018-04-30T06:59:19.863Z,13.06
2018-04-30T07:01:49.765Z,13.14
2018-04-30T07:04:19.317Z,13.45
2018-04-30T07:06:48.844Z,13.39
2018-04-30T07:09:19.547Z,13.40
2018-04-30T07:11:49.180Z,13.16
2018-04-30T07:14:18.703Z,13.01
2018-04-30T07:16:48.234Z,13.18
2018-04-30T07:19:18.163Z,12.87
2018-04-30T07:21:48.139Z,12.87
2018-04-30T07:24:17.669Z,13.21
2018-04-30T07:26:47.199Z,13.42
2018-04-30T07:29:17.107Z,13.49
2018-04-30T07:31:47.043Z,13.75
2018-04-30T07:34:16.831Z,13.82
2018-04-30T07:36:46.745Z,13.82
2018-04-30T07:39:16.687Z,13.68
2018-04-30T07:41:46.207Z,13.99
2018-04-30T07:44:15.897Z,14.04
2018-04-30T07:46:45.117Z,14.23
2018-04-30T07:49:14.630Z,14.17
2018-04-30T07:51:44.151Z,14.14
2018-04-30T07:54:13.741Z,14.41
2018-04-30T07:56:43.603Z,14.15
2018-04-30T07:59:13.517Z,14.40
2018-04-30T08:01:43.453Z,14.29
2018-04-30T08:04:12.995Z,14.68
2018-04-30T08:06:42.413Z,14.40
2018-04-30T08:09:12.334Z,14.44
2018-04-30T08:11:42.399Z,14.45
2018-04-30T08:14:11.927Z,14.85
2018-04-30T08:16:41.451Z,15.04
2018-04-30T08:19:10.985Z,14.84
2018-04-30T08:21:40.511Z,15.10
2018-04-30T08:24:10.436Z,15.20
2018-04-30T08:26:39.963Z,14.86
2018-04-30T08:29:09.527Z,14.99
2018-04-30T08:31:39.464Z,14.81
2018-04-30T08:34:09.011Z,14.87
2018-04-30T08:36:39.021Z,14.98
2018-04-30T08:39:08.727Z,15.21
2018-04-30T08:41:38.260Z,15.18
2018-04-30T08:44:07.862Z,15.21
2018-04-30T08:46:37.469Z,15.42
2018-04-30T08:49:07.015Z,14.88
2018-04-30T08:51:37.269Z,15.20
2018-04-30T08:54:06.819Z,15.19
2018-04-30T08:56:36.349Z,15.67
2018-04-30T08:59:06.287Z,15.96
2018-04-30T09:01:35.833Z,16.02
2018-04-30T09:04:05.085Z,16.27
2018-04-30T09:06:34.604Z,16.48
2018-04-30T09:09:03.705Z,16.47
2018-04-30T09:11:33.346Z,16.39
2018-04-30T09:14:02.883Z,16.32
2018-04-30T09:16:32.826Z,16.32
2018-04-30T09:19:02.349Z,16.57
2018-04-30T09:21:32.057Z,16.79
2018-04-30T09:24:01.694Z,16.92
2018-04-30T09:26:31.476Z,16.59
2018-04-30T09:29:01.125Z,16.52
2018-04-30T09:31:30.763Z,16.47
2018-04-30T09:34:00.683Z,16.72
2018-04-30T09:36:30.636Z,16.79
2018-04-30T09:39:00.216Z,16.87
2018-04-30T09:41:29.793Z,16.93
2018-04-30T09:43:59.775Z,16.98
2018-04-30T09:46:29.296Z,17.24
2018-04-30T09:48:58.845Z,17.29
2018-04-30T09:51:28.767Z,16.74
2018-04-30T09:53:58.300Z,16.48
2018-04-30T09:56:27.846Z,16.46
2018-04-30T09:58:57.367Z,16.79
2018-04-30T10:01:27.293Z,17.27
2018-04-30T10:03:57.212Z,17.74
2018-04-30T10:06:27.806Z,17.94
2018-04-30T10:08:57.751Z,17.64
2018-04-30T10:11:27.678Z,17.53
2018-04-30T10:13:57.212Z,17.76
2018-04-30T10:16:26.730Z,17.11
2018-04-30T10:18:56.254Z,16.73
2018-04-30T10:21:25.837Z,16.61
2018-04-30T10:23:55.398Z,16.79
2018-04-30T10:26:25.093Z,16.97
2018-04-30T10:28:54.650Z,16.93
2018-04-30T10:31:24.241Z,17.00
2018-04-30T10:33:53.763Z,16.88
2018-04-30T10:36:23.312Z,17.59
2018-04-30T10:38:53.072Z,17.72
2018-04-30T10:41:22.585Z,17.40
2018-04-30T10:43:52.110Z,17.10
2018-04-30T10:46:22.000Z,17.10
2018-04-30T10:48:51.520Z,16.80
2018-04-30T10:51:21.161Z,16.80
2018-04-30T10:53:50.823Z,16.87
2018-04-30T10:56:20.385Z,16.84
2018-04-30T10:58:49.978Z,16.85
2018-04-30T11:01:19.558Z,16.87
2018-04-30T11:03:49.082Z,16.73
2018-04-30T11:06:18.624Z,17.26
2018-04-30T11:08:48.550Z,18.03
2018-04-30T11:11:18.480Z,18.21
2018-04-30T11:13:48.008Z,18.59
2018-04-30T11:16:17.552Z,18.78
2018-04-30T11:18:47.070Z,18.59
2018-04-30T11:21:16.988Z,18.35
2018-04-30T11:23:46.899Z,18.36
2018-04-30T11:26:16.616Z,18.63
2018-04-30T11:28:46.512Z,18.70
2018-04-30T11:31:16.082Z,18.93
2018-04-30T11:33:45.598Z,19.33
2018-04-30T11:36:15.331Z,19.03
2018-04-30T11:38:45.062Z,19.31
2018-04-30T11:41:14.822Z,18.85
2018-04-30T11:43:44.544Z,18.57
2018-04-30T11:46:14.302Z,18.53
2018-04-30T11:48:44.228Z,18.61
2018-04-30T11:51:14.356Z,18.47
2018-04-30T11:53:44.146Z,18.58
2018-04-30T11:56:13.530Z,18.63
2018-04-30T11:58:43.316Z,18.61
2018-04-30T12:01:13.035Z,18.60
2018-04-30T12:03:42.750Z,18.77
2018-04-30T12:06:12.521Z,18.98
2018-04-30T12:08:42.644Z,19.08
2018-04-30T12:11:12.371Z,19.17
2018-04-30T12:13:42.123Z,19.68
2018-04-30T12:16:11.899Z,20.27
2018-04-30T12:18:41.395Z,20.10
2018-04-30T12:21:11.107Z,19.58
2018-04-30T12:23:40.848Z,19.51
2018-04-30T12:26:10.576Z,19.85
2018-04-30T12:28:39.440Z,19.80
2018-04-30T12:31:09.156Z,19.14
2018-04-30T12:33:38.951Z,18.65
2018-04-30T12:36:08.705Z,19.00
2018-04-30T12:38:39.145Z,18.99
2018-04-30T12:41:08.891Z,18.71
2018-04-30T12:43:38.659Z,18.85
2018-04-30T12:46:08.377Z,19.12
2018-04-30T12:48:38.500Z,19.50
2018-04-30T12:51:08.639Z,19.56
2018-04-30T12:53:38.345Z,19.20
2018-04-30T12:56:08.090Z,18.76
2018-04-30T12:58:37.847Z,18.56
2018-04-30T13:01:08.008Z,18.74
2018-04-30T13:03:37.753Z,18.84
2018-04-30T13:06:07.485Z,18.41
2018-04-30T13:08:37.232Z,18.15
2018-04-30T13:11:06.608Z,18.51
2018-04-30T13:13:36.548Z,18.49
2018-04-30T13:16:05.696Z,18.66
2018-04-30T13:18:35.414Z,18.49
2018-04-30T13:21:04.934Z,18.41
2018-04-30T13:23:34.852Z,18.58
2018-04-30T13:26:05.242Z,18.70
2018-04-30T13:28:34.863Z,18.45
2018-04-30T13:31:04.191Z,17.97
2018-04-30T13:33:34.156Z,17.94
2018-04-30T13:36:03.708Z,18.03
2018-04-30T13:38:33.678Z,18.03
2018-04-30T13:41:03.467Z,18.45
2018-04-30T13:43:33.088Z,18.79
2018-04-30T13:46:03.180Z,18.89
2018-04-30T13:48:32.718Z,19.00
2018-04-30T13:51:02.274Z,19.17
2018-04-30T13:53:32.008Z,19.01
2018-04-30T13:56:01.513Z,19.14
2018-04-30T13:58:31.038Z,18.69
2018-04-30T14:01:00.594Z,18.47
2018-04-30T14:03:30.130Z,18.50
2018-04-30T14:05:59.649Z,18.57
2018-04-30T14:08:29.572Z,18.58
2018-04-30T14:10:59.086Z,18.85
2018-04-30T14:13:28.615Z,18.86
2018-04-30T14:15:58.243Z,19.23
2018-04-30T14:18:27.947Z,19.29
2018-04-30T14:20:58.260Z,19.04
2018-04-30T14:23:27.779Z,19.09
2018-04-30T14:25:57.714Z,18.78
2018-04-30T14:28:27.692Z,18.66
2018-04-30T14:30:57.270Z,18.66
2018-04-30T14:33:26.817Z,18.75
2018-04-30T14:35:56.374Z,18.40
2018-04-30T14:38:25.941Z,18.42
2018-04-30T14:40:55.396Z,18.21
2018-04-30T14:43:25.040Z,18.09
2018-04-30T14:45:54.252Z,17.90
2018-04-30T14:48:23.850Z,17.74
2018-04-30T14:50:53.387Z,17.74
2018-04-30T14:53:23.295Z,17.72
2018-04-30T14:55:53.213Z,17.44
2018-04-30T14:58:23.129Z,17.48
2018-04-30T15:00:53.091Z,17.48
2018-04-30T15:03:22.670Z,17.68
2018-04-30T15:05:52.288Z,17.71
2018-04-30T15:08:21.911Z,17.44
2018-04-30T15:10:51.420Z,17.15
2018-04-30T15:13:20.945Z,17.05
2018-04-30T15:15:50.477Z,16.96
2018-04-30T15:18:20.387Z,16.91
2018-04-30T15:20:50.313Z,16.89
2018-04-30T15:23:20.204Z,16.86
2018-04-30T15:25:49.726Z,16.86
2018-04-30T15:28:19.792Z,16.89
2018-04-30T15:30:49.360Z,17.04
2018-04-30T15:33:19.331Z,17.06
2018-04-30T15:35:48.941Z,16.95
2018-04-30T15:38:18.576Z,16.86
2018-04-30T15:40:48.122Z,16.85
2018-04-30T15:43:18.261Z,16.86
2018-04-30T15:45:47.813Z,16.87
2018-04-30T15:48:17.354Z,16.71
2018-04-30T15:50:46.876Z,16.48
2018-04-30T15:53:16.391Z,16.70
2018-04-30T15:55:45.672Z,16.68
2018-04-30T15:58:15.208Z,16.73
2018-04-30T16:00:44.752Z,16.76
2018-04-30T16:03:14.740Z,16.57
2018-04-30T16:05:44.300Z,16.54
2018-04-30T16:08:13.818Z,16.46
2018-04-30T16:10:43.329Z,16.62
2018-04-30T16:13:12.684Z,16.57
2018-04-30T16:15:42.223Z,16.59
2018-04-30T16:18:11.741Z,16.61
2018-04-30T16:20:41.284Z,16.76
2018-04-30T16:23:10.796Z,16.79
2018-04-30T16:25:40.358Z,16.75
2018-04-30T16:28:09.919Z,16.58
2018-04-30T16:30:39.444Z,16.54
2018-04-30T16:33:09.387Z,16.44
2018-04-30T16:35:38.889Z,16.42
2018-04-30T16:38:08.446Z,16.40
2018-04-30T16:40:37.992Z,16.27
2018-04-30T16:43:07.505Z,16.30
2018-04-30T16:45:37.016Z,16.22
2018-04-30T16:48:06.680Z,16.28
2018-04-30T16:50:36.190Z,16.43
2018-04-30T16:53:06.128Z,16.48
2018-04-30T16:55:35.908Z,16.48
2018-04-30T16:58:05.437Z,16.44
2018-04-30T17:00:35.389Z,16.32
2018-04-30T17:03:04.909Z,16.23
2018-04-30T17:05:34.423Z,16.15
2018-04-30T17:08:03.976Z,16.17
2018-04-30T17:10:33.945Z,16.22
2018-04-30T17:13:03.657Z,16.25
2018-04-30T17:15:33.174Z,16.21
2018-04-30T17:18:02.688Z,16.09
2018-04-30T17:20:32.249Z,15.99
2018-04-30T17:23:02.511Z,15.86
2018-04-30T17:25:32.033Z,15.80
2018-04-30T17:28:01.589Z,15.63
2018-04-30T17:30:31.290Z,15.58
2018-04-30T17:33:01.001Z,15.58
2018-04-30T17:35:30.225Z,15.52
2018-04-30T17:37:59.742Z,15.47
2018-04-30T17:40:29.317Z,15.46
2018-04-30T17:42:58.918Z,15.41
2018-04-30T17:45:28.557Z,15.36
2018-04-30T17:47:58.091Z,15.31
2018-04-30T17:50:27.655Z,15.38
2018-04-30T17:52:57.174Z,15.33
2018-04-30T17:55:26.729Z,15.22
2018-04-30T17:57:56.696Z,15.25
2018-04-30T18:00:26.462Z,15.25
2018-04-30T18:02:56.373Z,15.19
2018-04-30T18:05:26.308Z,15.17
2018-04-30T18:07:55.841Z,15.14
2018-04-30T18:10:25.355Z,15.15
2018-04-30T18:12:54.921Z,15.19
2018-04-30T18:15:24.446Z,15.21
2018-04-30T18:17:53.976Z,15.27
2018-04-30T18:20:23.516Z,15.26
2018-04-30T18:22:53.483Z,15.23
2018-04-30T18:25:23.481Z,15.27
2018-04-30T18:27:53.015Z,15.31
2018-04-30T18:30:22.549Z,15.30
2018-04-30T18:32:52.087Z,15.28
2018-04-30T18:35:21.723Z,15.21
2018-04-30T18:37:51.272Z,15.08
2018-04-30T18:40:21.019Z,14.98
2018-04-30T18:42:52.135Z,14.89
2018-04-30T18:45:22.118Z,14.81
2018-04-30T18:47:52.912Z,14.68
2018-04-30T18:50:22.458Z,14.61
2018-04-30T18:52:51.999Z,14.59
2018-04-30T18:55:21.926Z,14.51
2018-04-30T18:57:51.851Z,14.39
2018-04-30T19:00:21.128Z,14.36
2018-04-30T19:02:51.072Z,14.37
2018-04-30T19:05:20.577Z,14.26
2018-04-30T19:07:50.113Z,14.16
2018-04-30T19:10:19.659Z,14.21
2018-04-30T19:12:49.183Z,14.10
2018-04-30T19:15:19.125Z,14.00
2018-04-30T19:17:48.661Z,13.99
2018-04-30T19:20:18.199Z,13.92
2018-04-30T19:22:48.149Z,13.98
2018-04-30T19:25:17.709Z,13.86
2018-04-30T19:27:47.255Z,13.77
2018-04-30T19:30:17.278Z,13.69
2018-04-30T19:32:46.805Z,13.60
2018-04-30T19:35:16.578Z,13.60
2018-04-30T19:37:46.489Z,13.49
2018-04-30T19:40:16.402Z,13.45
2018-04-30T19:42:46.328Z,13.43
2018-04-30T19:45:16.246Z,13.39
2018-04-30T19:47:46.186Z,13.38
2018-04-30T19:50:15.764Z,13.31
2018-04-30T19:52:45.696Z,13.38
2018-04-30T19:55:15.303Z,13.34
2018-04-30T19:57:44.811Z,13.39
2018-04-30T20:00:14.353Z,13.34
2018-04-30T20:02:43.879Z,13.14
2018-04-30T20:05:13.237Z,13.29
2018-04-30T20:07:43.017Z,13.40
2018-04-30T20:10:12.937Z,13.54
2018-04-30T20:12:42.874Z,13.57
2018-04-30T20:15:12.655Z,13.46
2018-04-30T20:17:42.593Z,13.51
2018-04-30T20:20:12.137Z,13.52
2018-04-30T20:22:41.692Z,13.49
2018-04-30T20:25:11.638Z,13.55
2018-04-30T20:27:41.290Z,13.56
2018-04-30T20:30:10.832Z,13.44
2018-04-30T20:32:40.446Z,13.45
2018-04-30T20:35:10.416Z,13.31
2018-04-30T20:37:40.001Z,13.34
2018-04-30T20:40:09.584Z,13.39
2018-04-30T20:42:39.130Z,13.40
2018-04-30T20:45:08.688Z,13.40
2018-04-30T20:47:38.208Z,13.37
2018-04-30T20:50:07.809Z,13.25
2018-04-30T20:52:37.420Z,13.18
2018-04-30T20:55:06.941Z,13.11
2018-04-30T20:57:36.515Z,12.75
2018-04-30T21:00:05.463Z,12.82
2018-04-30T21:02:35.606Z,12.71
2018-04-30T21:05:04.873Z,12.34
2018-04-30T21:07:34.380Z,12.45
2018-04-30T21:10:03.682Z,12.53
2018-04-30T21:12:33.410Z,12.56
2018-04-30T21:15:02.987Z,12.68
2018-04-30T21:17:32.495Z,12.71
2018-04-30T21:20:02.594Z,12.69
2018-04-30T21:22:32.152Z,12.68
2018-04-30T21:25:01.706Z,12.62
2018-04-30T21:27:31.731Z,12.53
2018-04-30T21:30:01.325Z,12.41
2018-04-30T21:32:31.029Z,12.62
2018-04-30T21:35:00.671Z,12.68
2018-04-30T21:37:30.227Z,12.58
2018-04-30T21:43:36.130Z,12.56
2018-04-30T21:46:07.096Z,12.43
2018-04-30T21:48:37.214Z,12.38
2018-04-30T21:51:06.771Z,12.30
2018-04-30T21:53:37.012Z,12.18
2018-04-30T21:56:07.632Z,12.14
2018-04-30T21:58:37.588Z,11.94
2018-04-30T22:01:07.108Z,11.95
2018-04-30T22:03:36.644Z,11.90
2018-04-30T22:06:06.178Z,11.84
2018-04-30T22:08:36.091Z,11.81
2018-04-30T22:11:05.792Z,11.91
2018-04-30T22:13:35.530Z,11.97
2018-04-30T22:16:05.068Z,12.08
2018-04-30T22:18:34.628Z,11.90
2018-04-30T22:21:04.152Z,12.05
2018-04-30T22:23:34.557Z,12.14
2018-04-30T22:26:04.203Z,12.10
2018-04-30T22:28:33.728Z,12.09
2018-04-30T22:41:50.672Z,11.83
2018-04-30T22:44:20.787Z,11.74
2018-04-30T22:46:50.318Z,11.86
2018-04-30T22:49:19.852Z,11.95
2018-04-30T22:51:49.643Z,11.94
2018-04-30T22:54:19.245Z,11.89
2018-04-30T22:56:48.763Z,11.87
2018-04-30T22:59:18.326Z,11.92
2018-04-30T23:01:47.866Z,11.80
2018-04-30T23:04:17.394Z,11.88
2018-04-30T23:06:46.923Z,11.81
2018-04-30T23:09:16.514Z,11.89
2018-04-30T23:11:46.631Z,11.89
2018-04-30T23:14:16.239Z,11.86
2018-04-30T23:16:45.820Z,11.89
2018-04-30T23:19:15.978Z,11.94
2018-04-30T23:21:45.542Z,12.08
2018-04-30T23:24:15.096Z,12.11
2018-04-30T23:30:20.775Z,11.99
2018-04-30T23:32:50.088Z,11.95
2018-04-30T23:35:20.074Z,11.99
2018-04-30T23:37:49.606Z,12.00
2018-04-30T23:40:19.564Z,11.96
2018-04-30T23:42:49.994Z,12.04
2018-04-30T23:45:19.533Z,11.95
2018-04-30T23:47:49.077Z,11.98
2018-04-30T23:50:18.304Z,11.93
2018-04-30T23:52:47.837Z,11.84
2018-04-30T23:55:17.198Z,11.92
2018-04-30T23:57:46.738Z,11.94
